createdAt,value
2022-08-26T00:02:34.773Z,17.50
2022-08-26T00:09:57.454Z,15.50
2022-08-26T00:12:35.932Z,18.00
2022-08-26T00:15:58.789Z,21.40
2022-08-26T00:18:38.836Z,18.90
2022-08-26T00:22:02.984Z,17.40
2022-08-26T00:24:41.417Z,18.00
2022-08-26T00:28:10.297Z,22.50
2022-08-26T00:30:51.589Z,19.50
2022-08-26T00:38:58.638Z,21.80
2022-08-26T00:41:31.563Z,15.20
2022-08-26T00:44:04.080Z,16.70
2022-08-26T00:51:10.139Z,23.40
2022-08-26T01:02:30.262Z,19.70
2022-08-26T01:05:12.232Z,23.80
2022-08-26T01:48:39.175Z,15.20
2022-08-26T01:55:34.547Z,20.70
2022-08-26T02:03:23.312Z,19.50
2022-08-26T02:05:57.743Z,17.20
2022-08-26T02:09:21.891Z,17.80
2022-08-26T02:15:56.527Z,15.60
2022-08-26T02:18:31.556Z,20.00
2022-08-26T02:29:52.175Z,18.30
2022-08-26T02:33:17.517Z,15.20
2022-08-26T02:35:51.331Z,15.90
2022-08-26T02:38:23.564Z,17.40
2022-08-26T02:45:47.217Z,15.50
2022-08-26T02:48:25.903Z,13.80
2022-08-26T02:55:50.084Z,23.50
2022-08-26T02:58:22.967Z,17.00
2022-08-26T03:01:02.136Z,15.10
2022-08-26T03:04:57.520Z,12.50
2022-08-26T03:08:36.346Z,15.40
2022-08-26T03:11:11.057Z,18.90
2022-08-26T03:13:45.092Z,17.60
2022-08-26T03:16:23.572Z,16.20
2022-08-26T03:18:55.876Z,15.30
2022-08-26T03:21:35.512Z,19.30
2022-08-26T03:24:11.113Z,16.70
2022-08-26T03:27:47.844Z,17.30
2022-08-26T03:34:23.705Z,14.60
2022-08-26T03:37:30.271Z,17.10
2022-08-26T03:40:50.467Z,16.20
2022-08-26T03:48:15.663Z,16.30
2022-08-26T03:55:24.886Z,14.10
2022-08-26T03:58:46.578Z,14.60
2022-08-26T04:01:21.656Z,14.40
2022-08-26T04:04:42.564Z,12.30
2022-08-26T04:07:21.820Z,12.60
2022-08-26T04:14:45.794Z,14.70
2022-08-26T04:18:05.353Z,14.90
2022-08-26T04:20:39.266Z,12.30
2022-08-26T04:24:03.592Z,15.40
2022-08-26T04:27:25.600Z,13.70
2022-08-26T04:30:05.385Z,14.60
2022-08-26T04:42:03.690Z,11.90
2022-08-26T04:44:42.799Z,11.90
2022-08-26T04:47:15.205Z,13.40
2022-08-26T04:53:57.509Z,13.40
2022-08-26T04:57:45.162Z,12.00
2022-08-26T05:00:34.070Z,13.30
2022-08-26T05:03:07.682Z,17.10
2022-08-26T05:06:43.726Z,13.10
2022-08-26T05:09:18.552Z,12.30
2022-08-26T05:11:52.057Z,16.30
2022-08-26T05:14:24.982Z,13.90
2022-08-26T05:16:57.468Z,16.00
2022-08-26T05:19:29.762Z,18.20
2022-08-26T05:22:02.359Z,18.70
2022-08-26T05:24:36.395Z,14.50
2022-08-26T05:27:11.637Z,16.40
2022-08-26T05:29:44.395Z,21.20
2022-08-26T05:32:17.063Z,20.50
2022-08-26T05:34:49.341Z,20.70
2022-08-26T05:37:25.071Z,27.20
2022-08-26T05:39:57.615Z,21.30
2022-08-26T05:42:30.286Z,21.40
2022-08-26T05:45:03.279Z,23.70
2022-08-26T05:47:35.644Z,23.40
2022-08-26T05:50:09.492Z,21.50
2022-08-26T05:52:41.672Z,23.30
2022-08-26T05:55:14.026Z,23.60
2022-08-26T05:57:46.593Z,18.80
2022-08-26T06:00:21.061Z,17.50
2022-08-26T06:02:53.501Z,20.30
2022-08-26T06:05:26.765Z,15.80
2022-08-26T06:08:14.237Z,20.10
2022-08-26T06:10:52.637Z,15.60
2022-08-26T06:13:26.864Z,16.80
2022-08-26T06:16:00.347Z,17.60
2022-08-26T06:18:36.521Z,12.10
2022-08-26T06:21:18.271Z,14.50
2022-08-26T06:24:10.309Z,16.70
2022-08-26T06:26:44.051Z,14.10
2022-08-26T06:31:58.208Z,12.10
2022-08-26T06:34:31.031Z,16.20
2022-08-26T06:37:06.318Z,11.60
2022-08-26T06:39:40.255Z,13.50
2022-08-26T06:42:13.726Z,20.40
2022-08-26T06:44:47.533Z,17.20
2022-08-26T06:47:20.492Z,13.80
2022-08-26T06:49:53.132Z,21.80
2022-08-26T06:52:27.809Z,13.70
2022-08-26T06:55:01.476Z,8.80
2022-08-26T06:57:37.653Z,12.40
2022-08-26T07:00:15.461Z,15.70
2022-08-26T07:02:48.066Z,13.90
2022-08-26T07:05:21.117Z,11.50
2022-08-26T07:07:53.690Z,17.70
2022-08-26T07:10:26.641Z,19.80
2022-08-26T07:12:58.867Z,13.40
2022-08-26T07:15:31.662Z,11.60
2022-08-26T07:18:09.218Z,11.20
2022-08-26T07:20:43.000Z,10.60
2022-08-26T07:23:24.179Z,14.00
2022-08-26T07:25:57.577Z,10.90
2022-08-26T07:28:33.426Z,13.80
2022-08-26T07:31:09.821Z,15.90
2022-08-26T07:33:48.603Z,10.20
2022-08-26T07:36:23.157Z,12.90
2022-08-26T07:38:56.424Z,11.90
2022-08-26T07:41:32.316Z,14.90
2022-08-26T07:44:05.335Z,15.00
2022-08-26T07:46:38.169Z,17.90
2022-08-26T07:49:11.637Z,10.60
2022-08-26T07:51:46.776Z,13.80
2022-08-26T07:54:19.892Z,17.30
2022-08-26T07:56:52.675Z,17.50
2022-08-26T07:59:27.853Z,10.40
2022-08-26T08:02:01.452Z,16.70
2022-08-26T08:04:34.646Z,12.20
2022-08-26T08:07:11.610Z,13.20
2022-08-26T08:09:50.427Z,19.00
2022-08-26T08:12:23.292Z,11.40
2022-08-26T08:14:58.627Z,13.30
2022-08-26T08:17:34.585Z,15.20
2022-08-26T08:20:09.381Z,8.40
2022-08-26T08:22:42.540Z,14.40
2022-08-26T08:25:20.045Z,10.50
2022-08-26T08:27:52.439Z,12.60
2022-08-26T08:30:25.592Z,14.00
2022-08-26T08:32:58.695Z,15.60
2022-08-26T08:35:34.688Z,11.20
2022-08-26T08:38:08.203Z,15.00
2022-08-26T08:41:50.682Z,9.20
2022-08-26T08:47:12.405Z,13.80
2022-08-26T08:49:49.692Z,18.00
2022-08-26T08:52:30.466Z,12.20
2022-08-26T08:55:04.328Z,9.40
2022-08-26T08:58:02.231Z,13.80
2022-08-26T09:00:47.774Z,13.20
2022-08-26T09:03:38.009Z,8.70
2022-08-26T09:06:17.469Z,10.40
2022-08-26T09:08:52.001Z,10.30
2022-08-26T09:11:24.377Z,12.60
2022-08-26T09:13:57.855Z,12.40
2022-08-26T09:16:44.125Z,10.10
2022-08-26T09:19:28.761Z,10.40
2022-08-26T09:22:08.722Z,9.50
2022-08-26T09:24:48.456Z,7.80
2022-08-26T09:27:40.020Z,8.20
2022-08-26T09:30:19.995Z,13.90
2022-08-26T09:33:10.837Z,12.30
2022-08-26T09:35:48.675Z,11.40
2022-08-26T09:38:42.184Z,9.80
2022-08-26T09:41:33.354Z,12.50
2022-08-26T09:44:17.856Z,10.50
2022-08-26T09:46:59.347Z,11.70
2022-08-26T09:49:36.584Z,10.10
2022-08-26T09:52:14.741Z,12.10
2022-08-26T09:54:59.566Z,9.00
2022-08-26T09:57:34.376Z,12.40
2022-08-26T10:00:29.143Z,8.50
2022-08-26T10:03:02.794Z,8.20
2022-08-26T10:05:47.822Z,10.90
2022-08-26T10:08:31.043Z,8.40
2022-08-26T10:11:29.490Z,9.20
2022-08-26T10:14:08.972Z,6.50
2022-08-26T10:16:48.510Z,10.80
2022-08-26T10:19:29.163Z,11.60
2022-08-26T10:22:20.246Z,10.60
2022-08-26T10:24:57.696Z,9.00
2022-08-26T10:27:37.846Z,8.90
2022-08-26T10:30:16.518Z,7.80
2022-08-26T10:32:54.495Z,11.10
2022-08-26T10:35:27.632Z,8.50
2022-08-26T10:38:05.681Z,8.30
2022-08-26T10:40:49.081Z,7.50
2022-08-26T10:43:26.033Z,10.60
2022-08-26T10:46:04.585Z,10.70
2022-08-26T10:48:44.855Z,8.70
2022-08-26T10:51:21.161Z,9.80
2022-08-26T10:54:04.958Z,10.80
2022-08-26T10:56:47.497Z,8.00
2022-08-26T10:59:31.838Z,10.70
2022-08-26T11:02:13.873Z,9.00
2022-08-26T11:04:52.456Z,14.10
2022-08-26T11:07:41.881Z,8.70
2022-08-26T11:10:58.891Z,6.60
2022-08-26T11:14:04.143Z,8.10
2022-08-26T11:16:43.367Z,10.70
2022-08-26T11:20:09.524Z,7.10
2022-08-26T11:25:22.839Z,11.90
2022-08-26T11:28:00.904Z,6.00
2022-08-26T11:30:57.895Z,6.10
2022-08-26T11:34:01.465Z,10.10
2022-08-26T11:36:42.839Z,11.80
2022-08-26T11:39:29.451Z,16.40
2022-08-26T11:42:15.402Z,11.60
2022-08-26T11:44:53.175Z,10.10
2022-08-26T11:47:33.042Z,11.10
2022-08-26T11:50:23.359Z,9.00
2022-08-26T11:53:06.362Z,7.50
2022-08-26T11:55:45.370Z,8.50
2022-08-26T11:58:20.713Z,12.20
2022-08-26T12:01:01.680Z,12.10
2022-08-26T12:03:42.904Z,8.90
2022-08-26T12:06:24.128Z,11.00
2022-08-26T12:09:00.314Z,12.40
2022-08-26T12:11:34.629Z,12.60
2022-08-26T12:14:09.830Z,9.10
2022-08-26T12:16:43.505Z,11.90
2022-08-26T12:19:32.709Z,15.50
2022-08-26T12:22:08.644Z,9.80
2022-08-26T12:24:48.640Z,8.40
2022-08-26T12:27:25.487Z,9.40
2022-08-26T12:30:14.194Z,13.70
2022-08-26T12:32:50.984Z,6.70
2022-08-26T12:35:32.139Z,9.20
2022-08-26T12:38:05.209Z,8.30
2022-08-26T12:40:44.621Z,5.30
2022-08-26T12:43:41.510Z,9.10
2022-08-26T12:46:17.861Z,10.20
2022-08-26T12:48:53.426Z,6.70
2022-08-26T12:51:31.251Z,7.50
2022-08-26T12:54:07.305Z,6.00
2022-08-26T12:56:40.952Z,6.40
2022-08-26T12:59:25.198Z,13.20
2022-08-26T13:01:57.695Z,9.80
2022-08-26T13:04:39.111Z,10.20
2022-08-26T13:07:26.675Z,9.10
2022-08-26T13:10:01.069Z,3.40
2022-08-26T13:16:47.522Z,9.90
2022-08-26T13:24:18.067Z,6.70
2022-08-26T13:32:46.233Z,6.20
2022-08-26T13:35:25.349Z,5.30
2022-08-26T13:38:33.438Z,5.90
2022-08-26T13:41:06.636Z,7.50
2022-08-26T13:48:22.861Z,7.70
2022-08-26T13:51:20.489Z,11.40
2022-08-26T13:53:53.461Z,4.10
2022-08-26T13:56:29.728Z,6.50
2022-08-26T13:59:03.331Z,7.70
2022-08-26T14:01:38.230Z,9.90
2022-08-26T14:04:10.650Z,6.60
2022-08-26T14:06:42.894Z,7.90
2022-08-26T14:09:15.261Z,9.00
2022-08-26T14:11:53.930Z,7.50
2022-08-26T14:14:26.968Z,5.80
2022-08-26T14:17:00.557Z,8.70
2022-08-26T14:19:33.510Z,9.90
2022-08-26T14:22:06.852Z,6.70
2022-08-26T14:24:39.217Z,7.50
2022-08-26T14:27:11.399Z,7.20
2022-08-26T14:29:43.861Z,11.80
2022-08-26T14:32:25.395Z,8.50
2022-08-26T14:34:58.961Z,7.80
2022-08-26T14:37:31.622Z,14.10
2022-08-26T14:40:06.016Z,6.10
2022-08-26T14:42:41.344Z,8.50
2022-08-26T14:45:17.944Z,8.20
2022-08-26T14:47:51.841Z,10.30
2022-08-26T14:50:26.643Z,11.10
2022-08-26T14:53:16.785Z,7.00
2022-08-26T14:55:50.565Z,8.60
2022-08-26T14:58:25.001Z,7.80
2022-08-26T15:01:21.081Z,7.40
2022-08-26T15:03:53.813Z,7.00
2022-08-26T15:06:31.880Z,7.30
2022-08-26T15:09:06.510Z,5.20
2022-08-26T15:11:39.034Z,9.30
2022-08-26T15:14:18.876Z,4.90
2022-08-26T15:16:55.918Z,5.40
2022-08-26T15:19:29.340Z,8.40
2022-08-26T15:22:01.603Z,9.60
2022-08-26T15:24:33.801Z,7.70
2022-08-26T15:27:06.428Z,8.00
2022-08-26T15:29:41.609Z,8.30
2022-08-26T15:32:16.312Z,4.40
2022-08-26T15:34:50.028Z,7.40
2022-08-26T15:37:22.219Z,6.30
2022-08-26T15:39:56.770Z,7.30
2022-08-26T15:42:29.401Z,7.30
2022-08-26T15:45:01.641Z,7.80
2022-08-26T15:47:38.114Z,9.50
2022-08-26T15:50:26.375Z,10.20
2022-08-26T15:52:59.778Z,13.50
2022-08-26T15:55:31.975Z,5.50
2022-08-26T15:58:38.083Z,9.30
2022-08-26T16:01:10.647Z,6.10
2022-08-26T16:03:45.355Z,7.30
2022-08-26T16:06:22.507Z,8.00
2022-08-26T16:08:55.653Z,7.60
2022-08-26T16:11:31.919Z,7.70
2022-08-26T16:14:04.696Z,6.30
2022-08-26T16:16:43.364Z,6.60
2022-08-26T16:19:15.887Z,7.20
2022-08-26T16:21:51.485Z,7.40
2022-08-26T16:24:29.742Z,15.90
2022-08-26T16:27:03.520Z,6.20
2022-08-26T16:29:35.801Z,11.70
2022-08-26T16:32:08.835Z,8.50
2022-08-26T16:34:46.967Z,5.50
2022-08-26T16:37:29.128Z,6.70
2022-08-26T16:40:01.770Z,13.20
2022-08-26T16:42:34.484Z,8.80
2022-08-26T16:45:07.714Z,8.30
2022-08-26T16:47:40.046Z,5.80
2022-08-26T16:50:13.221Z,7.60
2022-08-26T16:52:51.571Z,7.60
2022-08-26T16:55:28.303Z,8.00
2022-08-26T16:58:00.643Z,7.00
2022-08-26T17:05:27.040Z,7.40
2022-08-26T17:08:07.240Z,7.70
2022-08-26T17:13:35.181Z,6.70
2022-08-26T17:16:10.811Z,11.20
2022-08-26T17:19:32.778Z,10.60
2022-08-26T17:22:20.980Z,11.50
2022-08-26T17:24:53.544Z,13.90
2022-08-26T17:27:31.904Z,13.30
2022-08-26T17:30:07.162Z,9.60
2022-08-26T17:33:39.215Z,10.00
2022-08-26T17:36:53.402Z,12.40
2022-08-26T17:39:26.673Z,11.00
2022-08-26T17:43:12.424Z,9.00
2022-08-26T17:45:45.443Z,11.90
2022-08-26T17:53:08.061Z,11.30
2022-08-26T17:55:45.223Z,8.90
2022-08-26T18:03:08.781Z,10.40
2022-08-26T18:10:14.070Z,10.10
2022-08-26T18:13:36.389Z,13.70
2022-08-26T18:21:01.520Z,16.90
2022-08-26T18:24:41.634Z,9.70
2022-08-26T18:28:26.679Z,11.40
2022-08-26T18:30:59.024Z,10.40
2022-08-26T18:33:31.472Z,15.40
2022-08-26T18:36:05.874Z,11.90
2022-08-26T18:39:03.523Z,10.00
2022-08-26T18:45:20.850Z,13.80
2022-08-26T18:48:51.013Z,16.80
2022-08-26T18:53:58.609Z,12.40
2022-08-26T18:56:32.766Z,11.00
2022-08-26T18:59:07.908Z,9.70
2022-08-26T19:02:39.814Z,11.20
2022-08-26T19:05:53.744Z,9.60
2022-08-26T19:08:26.336Z,9.20
2022-08-26T19:11:00.360Z,14.50
2022-08-26T19:14:28.135Z,10.10
2022-08-26T19:17:01.609Z,10.80
2022-08-26T19:19:34.458Z,9.40
2022-08-26T19:22:07.609Z,13.40
2022-08-26T19:24:46.825Z,13.20
2022-08-26T19:27:19.316Z,12.30
2022-08-26T19:29:51.523Z,8.80
2022-08-26T19:32:24.475Z,11.20
2022-08-26T19:34:57.387Z,10.80
2022-08-26T19:37:57.193Z,10.60
2022-08-26T19:45:29.267Z,9.10
2022-08-26T19:52:58.141Z,9.80
2022-08-26T19:55:30.377Z,11.20
2022-08-26T19:58:03.976Z,10.10
2022-08-26T20:00:39.686Z,11.50
2022-08-26T20:03:15.827Z,11.50
2022-08-26T20:05:48.959Z,9.50
2022-08-26T20:08:22.444Z,13.40
2022-08-26T20:10:54.978Z,11.40
2022-08-26T20:13:27.174Z,15.00
2022-08-26T20:15:59.637Z,14.80
2022-08-26T20:18:49.606Z,13.90
2022-08-26T20:21:29.840Z,13.90
2022-08-26T20:24:04.245Z,14.40
2022-08-26T20:26:38.504Z,10.30
2022-08-26T20:29:12.827Z,11.20
2022-08-26T20:31:45.984Z,14.20
2022-08-26T20:34:19.679Z,11.40
2022-08-26T20:36:52.657Z,14.30
2022-08-26T20:39:25.467Z,14.70
2022-08-26T20:41:58.593Z,14.20
2022-08-26T20:44:31.952Z,12.80
2022-08-26T20:47:04.528Z,11.60
2022-08-26T20:49:37.304Z,14.30
2022-08-26T20:52:11.032Z,12.30
2022-08-26T20:54:43.508Z,14.50
2022-08-26T20:57:15.749Z,14.60
2022-08-26T20:59:47.874Z,16.60
2022-08-26T21:02:20.939Z,15.80
2022-08-26T21:04:53.702Z,13.30
2022-08-26T21:07:26.415Z,13.50
2022-08-26T21:09:58.783Z,12.90
2022-08-26T21:12:33.539Z,14.40
2022-08-26T21:15:06.267Z,15.20
2022-08-26T21:17:38.697Z,10.90
2022-08-26T21:20:11.746Z,13.00
2022-08-26T21:22:45.783Z,16.40
2022-08-26T21:25:18.062Z,15.40
2022-08-26T21:27:50.300Z,12.80
2022-08-26T21:30:23.746Z,14.90
2022-08-26T21:32:56.513Z,15.60
2022-08-26T21:35:29.014Z,14.90
2022-08-26T21:38:01.207Z,15.60
2022-08-26T21:40:33.355Z,14.10
2022-08-26T21:43:05.549Z,14.50
2022-08-26T21:45:42.174Z,14.70
2022-08-26T21:48:14.339Z,13.30
2022-08-26T21:50:46.855Z,16.60
2022-08-26T21:53:19.513Z,16.00
2022-08-26T21:55:51.834Z,17.90
2022-08-26T21:58:24.324Z,11.90
2022-08-26T22:00:56.710Z,14.60
2022-08-26T22:03:29.067Z,13.90
2022-08-26T22:06:03.551Z,13.50
2022-08-26T22:08:38.197Z,14.10
2022-08-26T22:11:10.907Z,14.50
2022-08-26T22:13:44.399Z,15.40
2022-08-26T22:16:17.382Z,11.70
2022-08-26T22:18:49.643Z,15.60
2022-08-26T22:21:24.810Z,12.90
2022-08-26T22:23:58.193Z,12.30
2022-08-26T22:26:33.944Z,15.10
2022-08-26T22:29:08.099Z,14.80
2022-08-26T22:31:40.552Z,12.80
2022-08-26T22:34:17.271Z,13.10
2022-08-26T22:36:51.246Z,12.00
2022-08-26T22:39:25.553Z,12.40
2022-08-26T22:41:58.003Z,18.60
2022-08-26T22:44:30.313Z,14.50
2022-08-26T22:47:05.570Z,15.20
2022-08-26T22:49:38.636Z,15.30
2022-08-26T22:52:10.806Z,14.50
2022-08-26T22:54:43.047Z,12.70
2022-08-26T22:57:15.194Z,13.30
2022-08-26T22:59:47.745Z,16.60
2022-08-26T23:02:19.948Z,15.20
2022-08-26T23:04:52.404Z,11.60
2022-08-26T23:07:24.869Z,11.80
2022-08-26T23:09:57.072Z,15.00
2022-08-26T23:12:29.334Z,14.40
2022-08-26T23:15:02.388Z,12.90
2022-08-26T23:17:36.762Z,13.00
2022-08-26T23:20:12.821Z,14.50
2022-08-26T23:22:45.510Z,11.90
2022-08-26T23:25:17.577Z,14.10
2022-08-26T23:27:50.334Z,16.50
2022-08-26T23:30:25.888Z,14.70
2022-08-26T23:32:59.303Z,13.70
2022-08-26T23:35:31.589Z,14.00
2022-08-26T23:38:05.831Z,15.10
2022-08-26T23:40:39.429Z,19.40
2022-08-26T23:43:12.630Z,14.90
2022-08-26T23:45:44.843Z,20.50
2022-08-26T23:48:19.855Z,20.30
2022-08-26T23:51:09.544Z,17.80
2022-08-26T23:53:42.493Z,18.40
2022-08-26T23:56:18.485Z,16.80
2022-08-26T23:58:50.889Z,17.60
